Latest Weather Observations for Coldstream

IDV60901

Issued at 8:35 pm EST Tuesday 29 July 2014 (issued every 10 minutes, with the page automatically refreshed every 10 minutes)

About weather observations | Map of Melbourne area stations | Latest observations for Melbourne area | Other Formats
Station Details ID: 086383 Name: COLDSTREAM Lat: -37.72 Lon: 145.41 Height: 83.0 m
Data from the previous 72 hours. | See also: Recent months at Coldstream
Date/Time
EST
Tmp

°C
App
Tmp
°C
Dew
Point
°C
Rel
Hum
%
Delta-T

°C
Wind Press
QNH
hPa
Press
MSL
hPa
Rain
since
9 am
mm
Dir
 
Spd
km/h
Gust
km/h
Spd
kts
Gust
kts
29/08:30pm 13.8 11.2 10.6 81 1.7 N 15 26 8 14 1010.6 - 0.0
29/08:00pm 14.0 10.4 10.4 79 1.9 N 20 33 11 18 1010.4 1010.6 0.0
29/07:30pm 13.5 9.5 10.5 82 1.6 N 22 33 12 18 1010.4 - 0.0
29/07:00pm 13.2 9.2 10.6 84 1.4 N 22 35 12 19 1010.1 1010.3 0.0
29/06:30pm 12.8 8.4 10.5 86 1.2 N 24 35 13 19 1010.1 - 0.0
29/06:00pm 13.7 8.0 9.9 78 2.0 N 30 46 16 25 1009.7 1009.9 0.0
29/05:37pm 13.5 8.2 9.9 79 1.9 N 28 46 15 25 1009.4 - 0.0
29/05:30pm 13.5 7.8 9.7 78 2.0 N 30 43 16 23 1009.5 - 0.0
29/05:03pm 13.3 8.0 9.7 79 1.9 N 28 57 15 31 1008.8 - 0.0
29/05:00pm 13.2 7.9 9.8 80 1.8 N 28 41 15 22 1008.8 1009.0 0.0
29/04:30pm 13.0 7.7 9.8 81 1.6 N 28 43 15 23 1008.7 - 0.0
29/04:00pm 12.8 6.7 9.8 82 1.5 N 32 46 17 25 1008.9 1009.1 0.0
29/03:50pm 12.7 6.4 9.7 82 1.5 N 33 52 18 28 1009.1 - 0.0
29/03:30pm 12.6 5.8 9.4 81 1.6 N 35 46 19 25 1009.2 - 0.0
29/03:09pm 12.5 6.0 9.1 80 1.7 N 33 54 18 29 1009.5 - 0.0
29/03:00pm 12.5 7.0 9.0 79 1.8 N 28 43 15 23 1009.9 1010.1 0.0
29/02:30pm 12.8 7.7 9.1 78 1.9 N 26 41 14 22 1009.4 - 0.0
29/02:08pm 13.1 7.5 8.6 74 2.3 N 28 50 15 27 1009.2 - 0.0
29/02:00pm 12.9 7.6 8.6 75 2.2 N 26 41 14 22 1009.2 1009.4 0.0
29/01:42pm 12.9 7.2 8.4 74 2.2 N 28 48 15 26 1009.0 - 0.0
29/01:30pm 12.9 7.2 8.4 74 2.2 N 28 43 15 23 1008.9 - 0.0
29/01:05pm 12.8 7.0 7.9 72 2.4 N 28 50 15 27 1009.6 - 0.0
29/01:00pm 12.8 7.4 7.9 72 2.4 N 26 43 14 23 1009.6 1009.8 0.0
29/12:32pm 12.9 7.1 7.8 71 2.5 N 28 46 15 25 1009.7 - 0.0
29/12:30pm 13.1 6.9 7.8 70 2.6 N 30 46 16 25 1009.7 - 0.0
29/12:00pm 12.9 6.6 7.4 69 2.7 N 30 52 16 28 1010.4 1010.6 0.0
29/11:30am 12.7 6.4 7.4 70 2.6 N 30 48 16 26 1010.9 - 0.0
29/11:04am 12.9 5.9 6.9 67 2.9 N 33 52 18 28 1010.6 - 0.0
29/11:00am 13.3 6.8 8.0 70 2.6 N 32 46 17 25 1010.6 1010.8 0.0
29/10:33am 12.7 6.7 7.2 69 2.7 N 28 48 15 26 1010.7 - 0.0
29/10:30am 12.6 7.4 7.3 70 2.6 N 24 41 13 22 1010.7 - 0.0
29/10:08am 13.2 7.2 7.2 67 2.9 N 28 46 15 25 1010.6 - 0.0
29/10:00am 12.9 6.0 7.1 68 2.8 N 33 48 18 26 1010.5 1010.7 0.0
29/09:30am 11.8 5.8 6.9 72 2.3 N 28 41 15 22 1011.1 - 0.0
29/09:00am 11.7 6.0 6.8 72 2.3 NNE 26 39 14 21 1011.1 1011.3 0.0
29/08:30am 11.6 7.1 6.9 73 2.3 N 20 30 11 16 1011.6 - 0.0
29/08:00am 12.0 7.4 6.7 70 2.5 N 20 37 11 20 1011.6 1011.8 0.0
29/07:30am 11.7 6.8 6.8 72 2.3 N 22 33 12 18 1011.2 - 0.0
29/07:00am 11.5 7.0 7.0 74 2.2 N 20 30 11 16 1011.5 1011.7 0.0
29/06:30am 11.6 6.4 7.1 74 2.2 N 24 37 13 20 1011.6 - 0.0
29/06:00am 11.6 6.7 7.1 74 2.2 N 22 33 12 18 1010.9 1011.1 0.0
29/05:30am 11.7 6.9 7.2 74 2.2 N 22 37 12 20 1011.2 - 0.0
29/05:00am 11.8 7.4 7.5 75 2.1 N 20 28 11 15 1011.2 1011.4 0.0
29/04:30am 11.8 7.0 7.3 74 2.2 N 22 35 12 19 1011.2 - 0.0
29/04:00am 11.7 7.9 7.4 75 2.1 N 17 26 9 14 1011.4 1011.6 0.0
29/03:30am 11.6 6.8 7.3 75 2.1 N 22 33 12 18 1011.0 - 0.0
29/03:00am 11.6 7.3 7.1 74 2.2 NNE 19 28 10 15 1011.4 1011.6 0.0
29/02:30am 11.6 7.7 7.1 74 2.2 N 17 28 9 15 1012.1 - 0.0
29/02:00am 11.5 7.2 6.8 73 2.2 N 19 28 10 15 1012.3 1012.5 0.0
29/01:30am 11.1 6.5 6.6 74 2.1 N 20 28 11 15 1012.6 - 0.0
29/01:00am 11.1 6.1 6.6 74 2.1 N 22 32 12 17 1012.8 1013.0 0.0
29/12:30am 10.8 6.8 6.7 76 1.9 N 17 24 9 13 1013.3 - 0.0
29/12:00am 10.6 7.7 6.6 76 1.9 N 11 17 6 9 1013.7 1013.9 0.0
 
Date/Time
EST
Tmp

°C
App
Tmp
°C
Dew
Point
°C
Rel
Hum
%
Delta-T

°C
Wind Press
QNH
hPa
Press
MSL
hPa
Rain
since
9 am
mm
Dir
 
Spd
km/h
Gust
km/h
Spd
kts
Gust
kts
28/11:30pm 10.6 7.3 6.4 75 2.0 N 13 17 7 9 1013.7 - 0.0
28/11:00pm 10.9 8.1 7.0 77 1.9 N 11 17 6 9 1013.9 1014.1 0.0
28/10:30pm 11.0 9.1 6.7 75 2.0 N 6 9 3 5 1014.1 - 0.0
28/10:00pm 12.0 8.4 6.9 71 2.4 N 15 19 8 10 1013.8 1014.0 0.0
28/09:30pm 12.3 8.0 7.2 71 2.5 N 19 28 10 15 1013.6 - 0.0
28/09:00pm 12.4 8.1 7.1 70 2.6 N 19 32 10 17 1013.8 1014.0 0.0
28/08:30pm 12.7 8.2 7.0 68 2.8 N 20 35 11 19 1013.9 - 0.0
28/08:00pm 12.6 9.1 7.1 69 2.7 N 15 22 8 12 1013.7 1013.9 0.0
28/07:30pm 12.4 8.9 7.1 70 2.6 N 15 24 8 13 1013.3 - 0.0
28/07:00pm 11.8 9.4 6.9 72 2.3 N 9 22 5 12 1013.2 1013.4 0.0
28/06:30pm 12.5 9.0 7.0 69 2.7 N 15 24 8 13 1013.2 - 0.0
28/06:00pm 12.8 8.9 7.0 68 2.8 N 17 28 9 15 1013.0 1013.2 0.0
28/05:30pm 13.2 9.2 6.8 65 3.1 N 17 28 9 15 1013.3 - 0.0
28/05:00pm 14.1 10.9 6.7 61 3.6 N 13 24 7 13 1013.7 1013.9 0.0
28/04:30pm 14.9 10.0 6.7 58 4.0 N 22 35 12 19 1013.1 - 0.0
28/04:00pm 15.6 11.1 6.9 56 4.3 N 20 32 11 17 1012.8 1013.0 0.0
28/03:30pm 16.3 11.9 7.3 55 4.5 N 20 39 11 21 1012.6 - 0.0
28/03:00pm 16.6 11.9 7.8 56 4.4 N 22 35 12 19 1012.8 1013.0 0.0
28/02:30pm 16.7 11.2 7.6 55 4.6 N 26 41 14 22 1013.0 - 0.0
28/02:00pm 16.8 12.5 7.7 55 4.6 N 20 35 11 19 1013.3 1013.5 0.0
28/01:30pm 16.2 11.2 8.2 59 4.1 N 24 35 13 19 1013.5 - 0.0
28/01:00pm 15.3 8.5 6.8 57 4.2 N 32 46 17 25 1014.2 1014.3 0.0
28/12:30pm 15.3 8.8 6.6 56 4.3 N 30 43 16 23 1014.7 - 0.0
28/12:00pm 15.2 9.2 7.0 58 4.0 N 28 41 15 22 1015.3 1015.4 0.0
28/11:30am 14.5 8.3 6.3 58 4.0 N 28 46 15 25 1015.7 - 0.0
28/11:17am 14.4 8.3 6.5 59 3.8 N 28 48 15 26 1015.9 - 0.0
28/11:00am 14.1 8.1 6.9 62 3.5 N 28 44 15 24 1016.1 1016.2 0.0
28/10:32am 13.3 6.1 5.9 61 3.5 N 33 54 18 29 1016.3 - 0.0
28/10:30am 13.4 6.5 6.5 63 3.3 N 32 48 17 26 1016.3 - 0.0
28/10:24am 13.3 6.8 6.4 63 3.3 N 30 48 16 26 1016.3 - 0.0
28/10:00am 12.8 5.6 5.9 63 3.3 N 33 50 18 27 1016.3 1016.4 0.0
28/09:30am 12.2 5.2 6.0 66 2.9 N 32 50 17 27 1016.5 - 0.0
28/09:27am 12.1 5.0 5.7 65 3.0 N 32 50 17 27 1016.5 - 0.0
28/09:00am 11.6 5.7 5.7 67 2.7 N 26 39 14 21 1016.7 1016.8 0.0
28/08:30am 11.4 5.5 5.7 68 2.7 N 26 39 14 21 1016.7 - 0.0
28/08:00am 10.6 5.0 5.4 70 2.4 N 24 41 13 22 1017.0 1017.1 0.0
28/07:30am 10.4 4.8 5.4 71 2.3 N 24 39 13 21 1017.2 - 0.0
28/07:00am 10.5 6.2 5.3 70 2.4 N 17 26 9 14 1017.4 1017.5 0.0
28/06:30am 10.5 6.2 5.3 70 2.4 N 17 28 9 15 1017.3 - 0.0
28/06:00am 10.6 6.3 5.4 70 2.4 N 17 26 9 14 1017.2 1017.3 0.0
28/05:30am 10.8 6.5 5.3 69 2.5 N 17 30 9 16 1017.3 - 0.0
28/05:00am 11.2 6.4 5.5 68 2.6 N 20 30 11 16 1017.2 1017.3 0.0
28/04:30am 11.1 5.9 5.6 69 2.5 N 22 35 12 19 1017.4 - 0.0
28/04:00am 10.7 6.2 5.9 72 2.2 N 19 30 10 16 1017.4 1017.5 0.0
28/03:30am 10.4 6.7 6.4 76 1.9 NNW 15 22 8 12 1017.9 - 0.0
28/03:00am 10.4 7.1 6.4 76 1.9 N 13 20 7 11 1018.1 1018.3 0.0
28/02:30am 10.3 6.6 6.5 77 1.8 N 15 22 8 12 1018.5 - 0.0
28/02:00am 10.7 7.1 6.6 76 1.9 N 15 22 8 12 1018.8 1019.0 0.0
28/01:30am 11.2 6.9 6.9 75 2.1 N 19 28 10 15 1019.0 - 0.0
28/01:00am 11.0 6.7 6.9 76 1.9 N 19 35 10 19 1019.0 1019.2 0.0
28/12:30am 10.7 6.8 7.2 79 1.7 N 17 28 9 15 1019.2 - 0.0
28/12:00am 10.8 7.3 7.1 78 1.8 N 15 24 8 13 1019.6 1019.8 0.0
 
Date/Time
EST
Tmp

°C
App
Tmp
°C
Dew
Point
°C
Rel
Hum
%
Delta-T

°C
Wind Press
QNH
hPa
Press
MSL
hPa
Rain
since
9 am
mm
Dir
 
Spd
km/h
Gust
km/h
Spd
kts
Gust
kts
27/11:30pm 10.8 6.9 7.3 79 1.7 N 17 22 9 12 1019.9 - 0.0
27/11:00pm 11.0 7.2 7.5 79 1.7 N 17 28 9 15 1020.2 1020.4 0.0
27/10:30pm 11.0 8.0 7.7 80 1.6 N 13 20 7 11 1020.6 - 0.0
27/10:00pm 11.2 7.4 7.7 79 1.7 N 17 24 9 13 1020.9 1021.1 0.0
27/09:30pm 11.3 7.9 7.8 79 1.7 N 15 20 8 11 1021.3 - 0.0
27/09:00pm 12.0 8.3 8.1 77 1.9 N 17 24 9 13 1021.5 1021.7 0.0
27/08:30pm 11.6 9.1 8.1 79 1.7 N 11 20 6 11 1021.5 - 0.0
27/08:00pm 10.8 8.2 7.7 81 1.5 N 11 17 6 9 1021.3 1021.5 0.0
27/07:30pm 11.0 8.0 7.5 79 1.7 N 13 17 7 9 1021.2 - 0.0
27/07:00pm 10.9 8.9 7.2 78 1.8 N 7 17 4 9 1020.9 1021.1 0.0
27/06:30pm 11.6 8.6 7.5 76 2.0 N 13 20 7 11 1020.7 - 0.0
27/06:00pm 12.3 8.6 8.0 75 2.1 N 17 24 9 13 1021.2 1021.4 0.0
27/05:30pm 12.3 9.4 8.0 75 2.1 N 13 20 7 11 1021.4 - 0.0
27/05:00pm 12.8 9.5 8.1 73 2.3 N 15 22 8 12 1021.5 1021.7 0.0
27/04:30pm 13.2 10.7 8.1 71 2.5 N 11 17 6 9 1021.6 - 0.0
27/04:00pm 13.4 10.0 7.6 68 2.8 N 15 26 8 14 1021.1 1021.3 0.0
27/03:30pm 13.8 10.1 8.0 68 2.9 N 17 26 9 14 1021.2 - 0.0
27/03:00pm 14.0 9.8 8.2 68 2.9 N 20 33 11 18 1020.9 1021.1 0.0
27/02:30pm 13.9 9.4 8.5 70 2.7 N 22 32 12 17 1020.7 - 0.0
27/02:00pm 14.1 9.2 8.3 68 2.9 N 24 39 13 21 1021.3 1021.5 0.0
27/01:30pm 13.7 9.4 7.9 68 2.9 N 20 32 11 17 1021.8 - 0.0
27/01:00pm 14.0 9.8 8.4 69 2.8 N 20 30 11 16 1022.3 1022.5 0.0
27/12:30pm 13.6 9.6 8.4 71 2.6 N 19 28 10 15 1023.0 - 0.0
27/12:00pm 13.5 8.8 7.9 69 2.8 N 22 39 12 21 1023.3 1023.5 0.0
27/11:30am 13.5 8.6 8.6 72 2.5 N 24 33 13 18 1023.9 - 0.0
27/11:00am 13.4 9.4 8.3 71 2.5 N 19 28 10 15 1024.5 1024.7 0.0
27/10:30am 12.9 8.8 8.6 75 2.2 N 20 28 11 15 1024.9 - 0.0
27/10:00am 12.5 9.6 9.7 83 1.4 N 15 24 8 13 1025.1 1025.3 0.0
27/09:30am 10.2 7.8 8.8 91 0.7 NNE 11 22 6 12 1025.3 - 0.0
27/09:00am 8.8 7.4 8.7 99 0.0 NNE 6 11 3 6 1025.4 1025.6 6.0
27/08:30am 5.7 4.7 5.6 99 0.0 CALM 0 6 0 3 1025.5 - 6.0
27/08:00am 3.1 1.6 3.0 99 0.0 CALM 0 0 0 0 1025.4 1025.6 6.0
27/07:30am 2.2 0.5 2.1 99 0.0 CALM 0 0 0 0 1025.1 - 6.0
27/07:00am 2.3 0.7 2.2 99 0.0 CALM 0 0 0 0 1025.0 1025.2 6.0
27/06:30am 2.5 0.9 2.4 99 0.0 CALM 0 0 0 0 1024.7 - 6.0
27/06:00am 3.1 1.6 3.0 99 0.0 CALM 0 0 0 0 1024.6 1024.8 6.0
27/05:30am 3.5 2.1 3.4 99 0.0 CALM 0 0 0 0 1024.6 - 6.0
27/05:00am 3.9 2.5 3.8 99 0.0 CALM 0 0 0 0 1024.7 1024.9 6.0
27/04:30am 4.9 3.7 4.8 99 0.0 CALM 0 0 0 0 1024.8 - 6.0
27/04:00am 5.7 4.7 5.6 99 0.0 CALM 0 0 0 0 1024.9 1025.1 6.0
27/03:30am 6.3 5.4 6.2 99 0.0 CALM 0 0 0 0 1025.0 - 6.0
27/03:00am 7.6 7.0 7.5 99 0.0 CALM 0 0 0 0 1025.1 1025.3 6.0
27/02:30am 8.6 8.3 8.5 99 0.0 CALM 0 0 0 0 1025.1 - 6.0
27/02:00am 9.0 8.8 8.9 99 0.0 CALM 0 0 0 0 1025.3 1025.5 6.0
27/01:30am 9.3 9.1 9.2 99 0.0 CALM 0 0 0 0 1025.5 - 6.0
27/01:00am 9.5 9.4 9.4 99 0.0 CALM 0 6 0 3 1025.4 1025.6 6.0
27/12:30am 9.9 8.8 9.8 99 0.1 NNW 6 7 3 4 1025.5 - 6.0
27/12:00am 10.3 10.0 10.1 99 0.1 N 2 7 1 4 1025.7 1025.9 6.0
 
Date/Time
EST
Tmp

°C
App
Tmp
°C
Dew
Point
°C
Rel
Hum
%
Delta-T

°C
Wind Press
QNH
hPa
Press
MSL
hPa
Rain
since
9 am
mm
Dir
 
Spd
km/h
Gust
km/h
Spd
kts
Gust
kts
26/11:30pm 10.4 10.5 10.2 99 0.1 CALM 0 0 0 0 1025.9 - 6.0
26/11:00pm 10.6 10.0 10.4 99 0.1 NNE 4 9 2 5 1025.8 1026.0 6.0
26/10:30pm 10.5 9.5 10.3 99 0.1 NW 6 7 3 4 1025.7 - 6.0
26/10:00pm 10.7 10.9 10.5 99 0.1 CALM 0 0 0 0 1025.7 1025.9 6.0
26/09:30pm 10.8 11.0 10.6 99 0.1 CALM 0 6 0 3 1025.7 - 6.0
26/09:00pm 10.7 10.9 10.5 99 0.1 CALM 0 0 0 0 1025.5 1025.7 5.4

Latest Capital City Observations: Canberra | Sydney | Melbourne | Brisbane | Adelaide | Perth | Hobart | Darwin

Other Formats:

Comma delimited format used in spreadsheet applications
http://www.bom.gov.au/fwo/IDV60901/IDV60901.94864.axf

JavaScript Object Notation format (JSON) in row-major order
http://www.bom.gov.au/fwo/IDV60901/IDV60901.94864.json